createdAt,value
2018-05-16T00:02:14.921Z,101878.07
2018-05-16T00:04:41.193Z,101878.63
2018-05-16T00:07:07.895Z,101873.09
2018-05-16T00:09:34.092Z,101872.47
2018-05-16T00:12:00.308Z,101873.63
2018-05-16T00:14:27.125Z,101872.56
2018-05-16T00:16:53.542Z,101871.97
2018-05-16T00:19:19.732Z,101870.94
2018-05-16T00:21:46.788Z,101863.24
2018-05-16T00:24:13.011Z,101862.67
2018-05-16T00:26:39.233Z,101865.61
2018-05-16T00:29:05.799Z,101868.56
2018-05-16T00:31:32.022Z,101867.08
2018-05-16T00:33:58.293Z,101867.33
2018-05-16T00:36:24.849Z,101863.08
2018-05-16T00:38:51.035Z,101861.56
2018-05-16T00:41:17.279Z,101860.48
2018-05-16T00:43:44.167Z,101855.89
2018-05-16T00:46:10.397Z,101857.44
2018-05-16T00:48:36.682Z,101858.61
2018-05-16T00:51:15.288Z,101863.78
2018-05-16T00:53:41.707Z,101864.08
2018-05-16T00:56:07.919Z,101855.73
2018-05-16T00:58:34.321Z,101849.81
2018-05-16T01:01:00.655Z,101858.22
2018-05-16T01:03:26.890Z,101858.33
2018-05-16T01:05:53.379Z,101854.11
2018-05-16T01:08:19.751Z,101853.41
2018-05-16T01:10:46.004Z,101852.23
2018-05-16T01:13:12.332Z,101856.06
2018-05-16T01:15:38.866Z,101856.25
2018-05-16T01:18:05.169Z,101861.45
2018-05-16T01:20:31.549Z,101856.72
2018-05-16T01:22:57.908Z,101855.22
2018-05-16T01:25:24.136Z,101857.75
2018-05-16T01:27:50.652Z,101856.20
2018-05-16T01:30:17.188Z,101856.88
2018-05-16T01:32:43.413Z,101857.52
2018-05-16T01:35:09.936Z,101853.20
2018-05-16T01:37:36.345Z,101843.69
2018-05-16T01:40:02.697Z,101853.98
2018-05-16T01:42:29.092Z,101858.17
2018-05-16T01:44:55.585Z,101848.05
2018-05-16T01:47:21.801Z,101858.06
2018-05-16T01:49:48.131Z,101859.08
2018-05-16T01:52:14.897Z,101857.00
2018-05-16T01:54:41.070Z,101853.39
2018-05-16T01:57:07.592Z,101859.73
2018-05-16T01:59:34.211Z,101852.00
2018-05-16T02:02:00.444Z,101852.60
2018-05-16T02:04:26.895Z,101849.65
2018-05-16T02:06:53.274Z,101851.53
2018-05-16T02:09:19.511Z,101842.27
2018-05-16T02:11:45.959Z,101854.62
2018-05-16T02:14:12.320Z,101852.54
2018-05-16T02:16:38.539Z,101849.06
2018-05-16T02:19:04.996Z,101846.47
2018-05-16T02:21:31.629Z,101834.22
2018-05-16T02:23:57.856Z,101844.77
2018-05-16T02:26:24.469Z,101831.70
2018-05-16T02:28:50.892Z,101849.83
2018-05-16T02:31:17.126Z,101842.33
2018-05-16T02:33:43.653Z,101847.33
2018-05-16T02:36:10.113Z,101847.85
2018-05-16T02:38:36.368Z,101837.22
2018-05-16T02:41:02.872Z,101838.99
2018-05-16T02:43:29.277Z,101833.20
2018-05-16T02:45:55.518Z,101803.45
2018-05-16T02:48:21.818Z,101834.54
2018-05-16T02:50:48.401Z,101834.54
2018-05-16T02:53:14.835Z,101835.06
2018-05-16T02:55:41.325Z,101826.64
2018-05-16T02:58:07.713Z,101827.48
2018-05-16T03:00:33.983Z,101831.92
2018-05-16T03:03:00.434Z,101824.73
2018-05-16T03:05:26.795Z,101820.24
2018-05-16T03:07:53.032Z,101820.69
2018-05-16T03:10:19.427Z,101819.73
2018-05-16T03:12:45.927Z,101817.84
2018-05-16T03:15:12.181Z,101809.45
2018-05-16T03:17:38.480Z,101806.61
2018-05-16T03:20:05.020Z,101815.30
2018-05-16T03:22:31.242Z,101796.96
2018-05-16T03:24:57.660Z,101793.78
2018-05-16T03:27:24.050Z,101797.70
2018-05-16T03:29:50.248Z,101793.54
2018-05-16T03:32:16.749Z,101788.92
2018-05-16T03:34:43.123Z,101782.49
2018-05-16T03:37:09.345Z,101784.16
2018-05-16T03:39:35.809Z,101779.97
2018-05-16T03:42:02.238Z,101779.81
2018-05-16T03:44:28.458Z,101780.98
2018-05-16T03:46:55.061Z,101781.25
2018-05-16T03:49:21.467Z,101774.84
2018-05-16T03:51:47.679Z,101776.48
2018-05-16T03:54:14.724Z,101774.48
2018-05-16T03:56:41.417Z,101762.83
2018-05-16T03:59:20.150Z,101766.86
2018-05-16T04:01:58.542Z,101764.42
2018-05-16T04:04:25.080Z,101763.66
2018-05-16T04:06:51.256Z,101764.73
2018-05-16T04:09:17.452Z,101756.88
2018-05-16T04:11:44.165Z,101758.54
2018-05-16T04:14:10.428Z,101762.09
2018-05-16T04:16:36.646Z,101759.50
2018-05-16T04:19:03.338Z,101759.59
2018-05-16T04:21:29.629Z,101755.70
2018-05-16T04:23:55.819Z,101746.36
2018-05-16T04:26:22.561Z,101741.52
2018-05-16T04:28:48.840Z,101732.38
2018-05-16T04:31:15.121Z,101735.34
2018-05-16T04:33:42.042Z,101733.59
2018-05-16T04:36:08.274Z,101734.11
2018-05-16T04:38:34.514Z,101726.53
2018-05-16T04:41:01.339Z,101730.97
2018-05-16T04:43:27.564Z,101735.77
2018-05-16T04:45:53.827Z,101713.95
2018-05-16T04:48:20.744Z,101725.00
2018-05-16T04:50:46.960Z,101725.91
2018-05-16T04:53:13.176Z,101721.42
2018-05-16T04:55:39.892Z,101721.48
2018-05-16T04:58:06.110Z,101716.53
2018-05-16T05:00:32.334Z,101718.67
2018-05-16T05:02:58.986Z,101716.84
2018-05-16T05:05:25.214Z,101708.79
2018-05-16T05:07:51.473Z,101713.67
2018-05-16T05:10:18.329Z,101715.83
2018-05-16T05:12:44.597Z,101711.67
2018-05-16T05:15:10.826Z,101719.20
2018-05-16T05:17:37.385Z,101717.66
2018-05-16T05:20:03.673Z,101713.52
2018-05-16T05:22:29.943Z,101715.54
2018-05-16T05:24:56.615Z,101714.96
2018-05-16T05:27:22.861Z,101709.56
2018-05-16T05:29:49.082Z,101709.48
2018-05-16T05:32:15.731Z,101709.84
2018-05-16T05:34:41.967Z,101703.02
2018-05-16T05:37:08.169Z,101698.50
2018-05-16T05:39:34.877Z,101701.06
2018-05-16T05:42:01.114Z,101696.42
2018-05-16T05:44:27.392Z,101698.80
2018-05-16T05:46:54.077Z,101689.12
2018-05-16T05:49:20.312Z,101688.84
2018-05-16T05:51:46.523Z,101686.84
2018-05-16T05:54:13.401Z,101678.61
2018-05-16T05:56:39.850Z,101682.13
2018-05-16T05:59:06.069Z,101678.33
2018-05-16T06:01:32.558Z,101675.41
2018-05-16T06:03:58.783Z,101676.12
2018-05-16T06:06:25.055Z,101674.60
2018-05-16T06:08:51.844Z,101677.22
2018-05-16T06:11:18.040Z,101672.00
2018-05-16T06:13:44.251Z,101674.50
2018-05-16T06:16:11.045Z,101663.08
2018-05-16T06:18:37.273Z,101669.25
2018-05-16T06:21:03.535Z,101671.85
2018-05-16T06:23:30.181Z,101649.22
2018-05-16T06:25:56.428Z,101660.63
2018-05-16T06:28:22.635Z,101660.48
2018-05-16T06:30:49.265Z,101656.63
2018-05-16T06:33:15.506Z,101651.11
2018-05-16T06:35:41.711Z,101647.30
2018-05-16T06:38:08.390Z,101652.33
2018-05-16T06:40:34.655Z,101642.66
2018-05-16T06:43:00.861Z,101645.11
2018-05-16T06:45:27.596Z,101637.55
2018-05-16T06:47:54.497Z,101638.95
2018-05-16T06:50:20.759Z,101633.75
2018-05-16T06:52:47.216Z,101639.77
2018-05-16T06:55:13.441Z,101633.91
2018-05-16T06:57:40.092Z,101642.06
2018-05-16T07:00:07.038Z,101639.47
2018-05-16T07:02:33.241Z,101640.94
2018-05-16T07:04:59.487Z,101643.31
2018-05-16T07:07:26.050Z,101637.27
2018-05-16T07:09:52.288Z,101635.09
2018-05-16T07:12:18.580Z,101642.27
2018-05-16T07:14:45.308Z,101637.00
2018-05-16T07:17:11.499Z,101631.55
2018-05-16T07:19:37.707Z,101631.67
2018-05-16T07:22:04.393Z,101627.27
2018-05-16T07:24:30.609Z,101620.21
2018-05-16T07:26:56.858Z,101616.70
2018-05-16T07:29:23.451Z,101619.62
2018-05-16T07:31:49.668Z,101618.46
2018-05-16T07:34:15.948Z,101624.52
2018-05-16T07:36:42.525Z,101621.62
2018-05-16T07:39:08.715Z,101619.19
2018-05-16T07:41:34.948Z,101607.70
2018-05-16T07:44:01.706Z,101613.10
2018-05-16T07:46:27.957Z,101613.50
2018-05-16T07:48:54.154Z,101615.09
2018-05-16T07:51:20.800Z,101608.68
2018-05-16T07:53:47.034Z,101616.79
2018-05-16T07:56:13.257Z,101620.30
2018-05-16T07:58:39.948Z,101618.83
2018-05-16T08:01:06.221Z,101620.45
2018-05-16T08:03:32.426Z,101607.96
2018-05-16T08:05:59.102Z,101614.48
2018-05-16T08:08:25.307Z,101613.92
2018-05-16T08:10:51.566Z,101613.35
2018-05-16T08:13:18.448Z,101610.84
2018-05-16T08:15:44.660Z,101610.77
2018-05-16T08:18:10.928Z,101610.05
2018-05-16T08:20:37.516Z,101609.57
2018-05-16T08:23:03.766Z,101605.99
2018-05-16T08:25:30.044Z,101577.89
2018-05-16T08:27:56.851Z,101602.50
2018-05-16T08:30:23.092Z,101592.64
2018-05-16T08:32:49.314Z,101602.15
2018-05-16T08:35:16.462Z,101601.57
2018-05-16T08:37:42.730Z,101598.36
2018-05-16T08:40:08.962Z,101602.13
2018-05-16T08:42:35.901Z,101602.03
2018-05-16T08:45:02.220Z,101606.55
2018-05-16T08:47:28.429Z,101605.67
2018-05-16T08:49:55.119Z,101599.44
2018-05-16T08:52:21.361Z,101595.55
2018-05-16T08:54:47.721Z,101604.89
2018-05-16T08:57:14.350Z,101600.36
2018-05-16T08:59:40.757Z,101599.27
2018-05-16T09:02:07.033Z,101601.14
2018-05-16T09:04:33.552Z,101595.95
2018-05-16T09:06:59.754Z,101599.20
2018-05-16T09:09:26.005Z,101595.47
2018-05-16T09:11:52.526Z,101590.18
2018-05-16T09:14:18.715Z,101592.42
2018-05-16T09:16:44.877Z,101577.38
2018-05-16T09:19:11.318Z,101581.11
2018-05-16T09:21:37.511Z,101582.80
2018-05-16T09:24:03.761Z,101580.98
2018-05-16T09:26:30.423Z,101584.98
2018-05-16T09:28:56.637Z,101575.59
2018-05-16T09:31:22.835Z,101576.56
2018-05-16T09:33:49.450Z,101571.03
2018-05-16T09:36:15.658Z,101570.27
2018-05-16T09:38:41.878Z,101565.64
2018-05-16T09:41:08.356Z,101567.70
2018-05-16T09:43:34.548Z,101560.56
2018-05-16T09:46:00.837Z,101560.97
2018-05-16T09:48:27.761Z,101558.24
2018-05-16T09:50:53.950Z,101561.23
2018-05-16T09:53:20.118Z,101560.38
2018-05-16T09:55:47.015Z,101557.48
2018-05-16T09:58:13.175Z,101560.80
2018-05-16T10:00:39.613Z,101564.91
2018-05-16T10:03:07.448Z,101553.77
2018-05-16T10:05:33.672Z,101555.92
2018-05-16T10:07:59.879Z,101545.08
2018-05-16T10:10:27.733Z,101564.02
2018-05-16T10:12:53.963Z,101560.17
2018-05-16T10:15:20.139Z,101556.75
2018-05-16T10:17:47.160Z,101560.83
2018-05-16T10:20:13.362Z,101556.31
2018-05-16T10:22:39.581Z,101562.52
2018-05-16T10:25:06.553Z,101556.08
2018-05-16T10:27:32.716Z,101551.69
2018-05-16T10:29:58.885Z,101552.33
2018-05-16T10:32:26.880Z,101551.13
2018-05-16T10:34:53.106Z,101550.95
2018-05-16T10:37:19.321Z,101547.57
2018-05-16T10:39:46.140Z,101541.63
2018-05-16T10:42:12.303Z,101543.61
2018-05-16T10:44:38.474Z,101543.32
2018-05-16T10:47:05.734Z,101547.72
2018-05-16T10:49:31.944Z,101529.97
2018-05-16T10:51:58.119Z,101537.44
2018-05-16T10:54:24.836Z,101533.80
2018-05-16T10:56:51.031Z,101536.18
2018-05-16T10:59:17.204Z,101529.58
2018-05-16T11:01:45.258Z,101538.67
2018-05-16T11:04:11.435Z,101533.44
2018-05-16T11:06:37.655Z,101510.36
2018-05-16T11:09:06.907Z,101533.47
2018-05-16T11:11:33.106Z,101522.36
2018-05-16T11:13:59.312Z,101531.05
2018-05-16T11:16:26.202Z,101528.98
2018-05-16T11:18:52.397Z,101525.80
2018-05-16T11:21:18.634Z,101526.33
2018-05-16T11:23:45.229Z,101520.36
2018-05-16T11:26:11.400Z,101517.20
2018-05-16T11:28:37.661Z,101513.96
2018-05-16T11:31:04.140Z,101503.87
2018-05-16T11:33:30.319Z,101512.69
2018-05-16T11:35:56.553Z,101507.91
2018-05-16T11:38:22.947Z,101505.84
2018-05-16T11:40:49.111Z,101500.97
2018-05-16T11:43:15.312Z,101501.27
2018-05-16T11:45:42.301Z,101496.42
2018-05-16T11:48:08.521Z,101493.52
2018-05-16T11:50:34.738Z,101492.98
2018-05-16T11:53:01.317Z,101497.17
2018-05-16T11:55:27.558Z,101498.30
2018-05-16T11:57:53.728Z,101490.42
2018-05-16T12:00:20.400Z,101494.24
2018-05-16T12:02:47.011Z,101488.70
2018-05-16T12:05:13.286Z,101493.32
2018-05-16T12:07:40.184Z,101485.50
2018-05-16T12:10:06.402Z,101484.21
2018-05-16T12:12:32.607Z,101481.70
2018-05-16T12:14:59.266Z,101482.48
2018-05-16T12:17:25.470Z,101474.55
2018-05-16T12:19:51.695Z,101472.47
2018-05-16T12:22:18.284Z,101480.41
2018-05-16T12:24:44.493Z,101471.72
2018-05-16T12:27:10.695Z,101475.02
2018-05-16T12:29:37.206Z,101463.32
2018-05-16T12:32:03.423Z,101459.08
2018-05-16T12:34:29.587Z,101474.20
2018-05-16T12:36:56.089Z,101474.03
2018-05-16T12:39:22.364Z,101463.55
2018-05-16T12:41:48.582Z,101468.56
2018-05-16T12:44:15.502Z,101463.45
2018-05-16T12:46:41.848Z,101463.25
2018-05-16T12:49:07.968Z,101468.83
2018-05-16T12:51:34.674Z,101474.08
2018-05-16T12:54:00.923Z,101474.45
2018-05-16T12:56:27.096Z,101471.73
2018-05-16T12:58:53.924Z,101474.48
2018-05-16T13:01:20.370Z,101464.48
2018-05-16T13:03:46.986Z,101470.17
2018-05-16T13:06:13.658Z,101466.69
2018-05-16T13:08:39.943Z,101464.90
2018-05-16T13:11:06.186Z,101461.05
2018-05-16T13:13:32.733Z,101456.70
2018-05-16T13:15:58.978Z,101452.80
2018-05-16T13:18:25.193Z,101454.77
2018-05-16T13:20:51.779Z,101449.98
2018-05-16T13:23:18.013Z,101447.20
2018-05-16T13:25:44.195Z,101449.11
2018-05-16T13:28:10.797Z,101448.83
2018-05-16T13:30:37.813Z,101448.36
2018-05-16T13:33:04.033Z,101451.19
2018-05-16T13:35:30.564Z,101451.45
2018-05-16T13:37:56.772Z,101446.38
2018-05-16T13:40:22.941Z,101447.14
2018-05-16T13:42:49.574Z,101439.97
2018-05-16T13:45:15.775Z,101441.16
2018-05-16T13:47:41.962Z,101445.06
2018-05-16T13:50:08.560Z,101449.80
2018-05-16T13:52:34.741Z,101444.34
2018-05-16T13:55:00.944Z,101445.41
2018-05-16T13:57:27.912Z,101441.38
2018-05-16T13:59:54.112Z,101436.95
2018-05-16T14:02:20.304Z,101436.38
2018-05-16T14:04:47.360Z,101427.27
2018-05-16T14:07:13.545Z,101425.72
2018-05-16T14:09:39.752Z,101417.28
2018-05-16T14:12:06.244Z,101418.23
2018-05-16T14:14:32.486Z,101421.72
2018-05-16T14:16:58.663Z,101413.61
2018-05-16T14:19:25.318Z,101415.88
2018-05-16T14:21:51.516Z,101415.63
2018-05-16T14:24:17.725Z,101417.77
2018-05-16T14:26:44.604Z,101413.86
2018-05-16T14:29:10.833Z,101412.97
2018-05-16T14:31:37.034Z,101422.87
2018-05-16T14:34:03.527Z,101410.86
2018-05-16T14:36:29.719Z,101410.39
2018-05-16T14:38:55.906Z,101409.97
2018-05-16T14:41:22.578Z,101412.44
2018-05-16T14:43:48.817Z,101410.05
2018-05-16T14:46:15.020Z,101405.28
2018-05-16T14:48:41.538Z,101412.19
2018-05-16T14:51:07.749Z,101413.78
2018-05-16T14:53:33.942Z,101404.33
2018-05-16T14:56:00.574Z,101406.38
2018-05-16T14:58:26.752Z,101402.02
2018-05-16T15:00:52.945Z,101399.29
2018-05-16T15:03:19.724Z,101405.18
2018-05-16T15:05:46.169Z,101412.17
2018-05-16T15:08:12.393Z,101408.70
2018-05-16T15:10:39.314Z,101402.45
2018-05-16T15:13:05.557Z,101393.06
2018-05-16T15:15:31.760Z,101398.81
2018-05-16T15:17:58.295Z,101399.05
2018-05-16T15:20:24.482Z,101399.55
2018-05-16T15:22:50.724Z,101399.05
2018-05-16T15:25:17.197Z,101397.34
2018-05-16T15:27:43.380Z,101394.37
2018-05-16T15:30:09.642Z,101392.15
2018-05-16T15:32:36.069Z,101395.84
2018-05-16T15:35:02.281Z,101398.41
2018-05-16T15:37:28.477Z,101401.11
2018-05-16T15:39:55.003Z,101396.87
2018-05-16T15:42:21.176Z,101395.58
2018-05-16T15:44:47.380Z,101391.02
2018-05-16T15:47:13.882Z,101391.33
2018-05-16T15:49:40.066Z,101381.78
2018-05-16T15:52:06.277Z,101380.35
2018-05-16T15:54:33.186Z,101391.48
2018-05-16T15:56:59.421Z,101396.46
2018-05-16T15:59:25.605Z,101392.20
2018-05-16T16:01:52.279Z,101385.11
2018-05-16T16:04:18.582Z,101387.36
2018-05-16T16:06:44.950Z,101379.98
2018-05-16T16:09:11.584Z,101383.73
2018-05-16T16:11:37.767Z,101385.14
2018-05-16T16:14:03.984Z,101376.59
2018-05-16T16:16:30.516Z,101375.67
2018-05-16T16:18:56.697Z,101378.83
2018-05-16T16:21:23.010Z,101381.88
2018-05-16T16:23:49.496Z,101384.26
2018-05-16T16:26:15.690Z,101380.44
2018-05-16T16:28:41.895Z,101376.28
2018-05-16T16:31:08.798Z,101375.80
2018-05-16T16:33:35.012Z,101374.38
2018-05-16T16:36:01.213Z,101371.33
2018-05-16T16:38:27.980Z,101373.13
2018-05-16T16:40:54.157Z,101372.17
2018-05-16T16:43:20.575Z,101366.05
2018-05-16T16:45:47.231Z,101367.12
2018-05-16T16:48:13.433Z,101380.31
2018-05-16T16:50:39.662Z,101368.83
2018-05-16T16:53:06.588Z,101388.69
2018-05-16T16:55:32.783Z,101378.56
2018-05-16T16:57:59.048Z,101382.34
2018-05-16T17:00:25.514Z,101378.80
2018-05-16T17:02:51.768Z,101372.97
2018-05-16T17:05:17.957Z,101376.08
2018-05-16T17:07:44.363Z,101373.94
2018-05-16T17:10:10.606Z,101372.03
2018-05-16T17:12:36.849Z,101368.61
2018-05-16T17:15:03.348Z,101388.88
2018-05-16T17:17:29.535Z,101388.75
2018-05-16T17:19:55.707Z,101378.38
2018-05-16T17:22:22.222Z,101371.34
2018-05-16T17:24:48.420Z,101378.80
2018-05-16T17:27:14.670Z,101378.16
2018-05-16T17:29:41.310Z,101369.91
2018-05-16T17:32:07.514Z,101380.21
2018-05-16T17:34:33.705Z,101383.09
2018-05-16T17:37:00.088Z,101382.98
2018-05-16T17:39:26.270Z,101388.59
2018-05-16T17:41:52.481Z,101392.83
2018-05-16T17:44:18.886Z,101391.38
2018-05-16T17:46:45.075Z,101390.56
2018-05-16T17:49:11.353Z,101397.95
2018-05-16T17:51:37.729Z,101396.95
2018-05-16T17:54:04.025Z,101407.28
2018-05-16T17:56:30.245Z,101417.09
2018-05-16T17:58:56.745Z,101413.33
2018-05-16T18:01:23.019Z,101413.70
2018-05-16T18:03:49.246Z,101417.44
2018-05-16T18:06:15.955Z,101421.92
2018-05-16T18:08:42.403Z,101425.81
2018-05-16T18:11:08.567Z,101425.50
2018-05-16T18:16:48.440Z,101440.19
2018-05-16T18:19:15.286Z,101438.16
2018-05-16T18:21:41.501Z,101452.17
2018-05-16T18:24:07.669Z,101454.13
2018-05-16T18:26:34.505Z,101464.81
2018-05-16T18:29:00.765Z,101480.16
2018-05-16T18:31:26.986Z,101472.88
2018-05-16T18:33:53.662Z,101451.09
2018-05-16T18:36:19.849Z,101494.72
2018-05-16T18:38:46.038Z,101505.45
2018-05-16T18:41:12.600Z,101508.09
2018-05-16T18:43:38.801Z,101508.02
2018-05-16T18:46:04.993Z,101526.02
2018-05-16T18:48:31.342Z,101527.91
2018-05-16T18:50:57.539Z,101532.33
2018-05-16T18:53:23.753Z,101534.27
2018-05-16T18:55:50.327Z,101548.09
2018-05-16T18:58:16.532Z,101548.66
2018-05-16T19:00:42.760Z,101565.95
2018-05-16T19:03:09.713Z,101575.72
2018-05-16T19:05:35.917Z,101570.11
2018-05-16T19:08:02.150Z,101583.55
2018-05-16T19:10:28.724Z,101587.50
2018-05-16T19:12:54.932Z,101592.19
2018-05-16T19:15:21.149Z,101593.49
2018-05-16T19:17:47.795Z,101600.66
2018-05-16T19:20:14.025Z,101599.20
2018-05-16T19:22:40.259Z,101603.30
2018-05-16T19:25:06.654Z,101615.03
2018-05-16T19:27:32.870Z,101627.33
2018-05-16T19:29:59.091Z,101620.04
2018-05-16T19:32:25.681Z,101633.95
2018-05-16T19:34:51.877Z,101651.55
2018-05-16T19:37:18.075Z,101647.09
2018-05-16T19:39:44.675Z,101644.98
2018-05-16T19:42:10.876Z,101653.97
2018-05-16T19:44:37.097Z,101649.69
2018-05-16T19:47:03.723Z,101659.36
2018-05-16T19:49:29.938Z,101668.47
2018-05-16T19:51:56.142Z,101656.70
2018-05-16T19:54:22.874Z,101679.64
2018-05-16T19:56:49.042Z,101678.91
2018-05-16T19:59:15.239Z,101672.50
2018-05-16T20:01:41.758Z,101672.09
2018-05-16T20:04:07.961Z,101688.70
2018-05-16T20:06:34.160Z,101692.06
2018-05-16T20:09:00.809Z,101691.68
2018-05-16T20:11:27.358Z,101687.72
2018-05-16T20:13:53.542Z,101693.77
2018-05-16T20:16:21.289Z,101690.44
2018-05-16T20:18:47.502Z,101703.33
2018-05-16T20:21:13.662Z,101691.20
2018-05-16T20:23:40.257Z,101688.54
2018-05-16T20:26:06.493Z,101714.09
2018-05-16T20:28:32.666Z,101704.07
2018-05-16T20:30:59.486Z,101707.48
2018-05-16T20:33:25.667Z,101712.33
2018-05-16T20:35:51.838Z,101719.55
2018-05-16T20:38:18.487Z,101731.23
2018-05-16T20:40:44.647Z,101723.78
2018-05-16T20:43:10.836Z,101725.27
2018-05-16T20:45:37.406Z,101721.33
2018-05-16T20:48:03.570Z,101728.64
2018-05-16T20:50:29.784Z,101736.73
2018-05-16T20:52:56.772Z,101732.50
2018-05-16T20:55:22.947Z,101732.05
2018-05-16T20:57:49.112Z,101741.94
2018-05-16T21:00:15.854Z,101740.47
2018-05-16T21:02:42.015Z,101745.97
2018-05-16T21:05:08.277Z,101739.67
2018-05-16T21:07:34.873Z,101743.88
2018-05-16T21:10:01.065Z,101754.02
2018-05-16T21:12:27.656Z,101757.12
2018-05-16T21:14:54.380Z,101753.08
2018-05-16T21:17:20.577Z,101757.59
2018-05-16T21:19:46.803Z,101756.20
2018-05-16T21:22:13.730Z,101755.03
2018-05-16T21:24:39.901Z,101764.22
2018-05-16T21:27:06.081Z,101779.07
2018-05-16T21:29:32.730Z,101777.31
2018-05-16T21:31:58.918Z,101778.98
2018-05-16T21:34:25.089Z,101780.14
2018-05-16T21:36:51.491Z,101779.11
2018-05-16T21:39:17.662Z,101786.47
2018-05-16T21:41:43.855Z,101796.55
2018-05-16T21:44:10.434Z,101794.53
2018-05-16T21:46:36.585Z,101781.43
2018-05-16T21:49:02.841Z,101797.95
2018-05-16T21:51:29.270Z,101797.03
2018-05-16T21:53:55.447Z,101801.48
2018-05-16T21:56:21.650Z,101804.05
2018-05-16T21:58:48.438Z,101806.77
2018-05-16T22:01:14.634Z,101810.27
2018-05-16T22:03:40.903Z,101804.89
2018-05-16T22:06:07.581Z,101807.55
2018-05-16T22:08:33.763Z,101823.63
2018-05-16T22:10:59.959Z,101819.78
2018-05-16T22:13:26.892Z,101804.20
2018-05-16T22:15:53.130Z,101809.91
2018-05-16T22:18:19.295Z,101820.06
2018-05-16T22:20:45.872Z,101790.72
2018-05-16T22:23:12.061Z,101818.69
2018-05-16T22:25:38.254Z,101829.01
2018-05-16T22:28:05.043Z,101815.08
2018-05-16T22:30:37.221Z,101826.84
2018-05-16T22:33:09.402Z,101832.56
2018-05-16T22:35:41.932Z,101823.10
2018-05-16T22:38:14.071Z,101825.39
2018-05-16T22:40:46.623Z,101832.30
2018-05-16T22:43:12.715Z,101837.59
2018-05-16T22:45:41.827Z,101830.66
2018-05-16T22:48:08.257Z,101827.63
2018-05-16T22:50:34.490Z,101814.81
2018-05-16T22:53:00.903Z,101826.75
2018-05-16T22:55:27.246Z,101814.50
2018-05-16T22:57:53.437Z,101816.34
2018-05-16T23:00:21.755Z,101828.99
2018-05-16T23:02:47.960Z,101840.08
2018-05-16T23:05:14.152Z,101840.48
2018-05-16T23:07:40.668Z,101842.19
2018-05-16T23:10:07.608Z,101845.17
2018-05-16T23:12:33.866Z,101839.64
2018-05-16T23:15:00.463Z,101845.72
2018-05-16T23:17:26.956Z,101855.02
2018-05-16T23:19:53.195Z,101848.92
2018-05-16T23:22:19.727Z,101846.79
2018-05-16T23:24:46.380Z,101844.72
2018-05-16T23:27:12.577Z,101850.27
2018-05-16T23:29:39.128Z,101866.93
2018-05-16T23:32:05.760Z,101879.19
2018-05-16T23:34:32.038Z,101878.09
2018-05-16T23:36:58.582Z,101885.52
2018-05-16T23:39:24.998Z,101882.61
2018-05-16T23:41:51.213Z,101896.78
2018-05-16T23:44:17.716Z,101895.46
2018-05-16T23:46:44.341Z,101914.83
2018-05-16T23:49:10.615Z,101917.70
2018-05-16T23:51:36.979Z,101911.69
2018-05-16T23:54:03.501Z,101899.13
2018-05-16T23:56:29.688Z,101910.41
2018-05-16T23:58:56.020Z,101902.62
